sensor_id;sensor_type;location;lat;lon;timestamp;P1;durP1;ratioP1;P2;durP2;ratioP2
15603;SDS011;7902;49.042;9.092;2022-07-18T00:02:22;13.40;;;1.60;;
15603;SDS011;7902;49.042;9.092;2022-07-18T00:04:48;17.70;;;1.57;;
15603;SDS011;7902;49.042;9.092;2022-07-18T00:07:14;22.20;;;1.77;;
15603;SDS011;7902;49.042;9.092;2022-07-18T00:09:40;15.90;;;1.70;;
15603;SDS011;7902;49.042;9.092;2022-07-18T00:12:08;13.40;;;1.43;;
15603;SDS011;7902;49.042;9.092;2022-07-18T00:14:36;14.80;;;1.40;;
15603;SDS011;7902;49.042;9.092;2022-07-18T00:17:03;13.17;;;1.43;;
15603;SDS011;7902;49.042;9.092;2022-07-18T00:19:29;28.97;;;1.87;;
15603;SDS011;7902;49.042;9.092;2022-07-18T00:21:56;17.83;;;2.20;;
15603;SDS011;7902;49.042;9.092;2022-07-18T00:24:22;18.43;;;1.73;;
15603;SDS011;7902;49.042;9.092;2022-07-18T00:26:48;12.47;;;1.43;;
15603;SDS011;7902;49.042;9.092;2022-07-18T00:29:13;17.43;;;1.47;;
15603;SDS011;7902;49.042;9.092;2022-07-18T00:31:39;22.17;;;1.87;;
15603;SDS011;7902;49.042;9.092;2022-07-18T00:34:05;21.53;;;1.93;;
15603;SDS011;7902;49.042;9.092;2022-07-18T00:36:31;12.80;;;1.10;;
15603;SDS011;7902;49.042;9.092;2022-07-18T00:38:58;15.73;;;1.87;;
15603;SDS011;7902;49.042;9.092;2022-07-18T00:41:24;15.07;;;1.40;;
15603;SDS011;7902;49.042;9.092;2022-07-18T00:43:50;12.50;;;1.20;;
15603;SDS011;7902;49.042;9.092;2022-07-18T00:46:20;14.37;;;1.90;;
15603;SDS011;7902;49.042;9.092;2022-07-18T00:48:47;14.03;;;1.43;;
15603;SDS011;7902;49.042;9.092;2022-07-18T00:51:13;13.30;;;1.30;;
15603;SDS011;7902;49.042;9.092;2022-07-18T00:53:39;14.67;;;1.30;;
15603;SDS011;7902;49.042;9.092;2022-07-18T00:56:05;15.57;;;1.30;;
15603;SDS011;7902;49.042;9.092;2022-07-18T00:58:31;22.47;;;1.50;;
15603;SDS011;7902;49.042;9.092;2022-07-18T01:00:58;20.70;;;1.43;;
15603;SDS011;7902;49.042;9.092;2022-07-18T01:03:43;15.20;;;1.70;;
15603;SDS011;7902;49.042;9.092;2022-07-18T01:06:09;15.63;;;1.60;;
15603;SDS011;7902;49.042;9.092;2022-07-18T01:08:35;13.80;;;1.17;;
15603;SDS011;7902;49.042;9.092;2022-07-18T01:11:03;13.60;;;1.30;;
15603;SDS011;7902;49.042;9.092;2022-07-18T01:13:29;13.47;;;1.50;;
15603;SDS011;7902;49.042;9.092;2022-07-18T01:15:55;19.13;;;1.70;;
15603;SDS011;7902;49.042;9.092;2022-07-18T01:18:21;17.83;;;1.60;;
15603;SDS011;7902;49.042;9.092;2022-07-18T01:20:47;13.57;;;1.20;;
15603;SDS011;7902;49.042;9.092;2022-07-18T01:23:13;12.63;;;1.20;;
15603;SDS011;7902;49.042;9.092;2022-07-18T01:25:39;17.57;;;1.40;;
15603;SDS011;7902;49.042;9.092;2022-07-18T01:28:05;13.00;;;1.33;;
15603;SDS011;7902;49.042;9.092;2022-07-18T01:30:31;17.40;;;1.77;;
15603;SDS011;7902;49.042;9.092;2022-07-18T01:32:57;14.63;;;1.63;;
15603;SDS011;7902;49.042;9.092;2022-07-18T01:35:25;13.13;;;1.20;;
15603;SDS011;7902;49.042;9.092;2022-07-18T01:37:52;14.87;;;1.73;;
15603;SDS011;7902;49.042;9.092;2022-07-18T01:40:19;17.23;;;1.50;;
15603;SDS011;7902;49.042;9.092;2022-07-18T01:42:46;14.33;;;1.50;;
15603;SDS011;7902;49.042;9.092;2022-07-18T01:45:12;20.83;;;1.67;;
15603;SDS011;7902;49.042;9.092;2022-07-18T01:47:38;14.93;;;1.80;;
15603;SDS011;7902;49.042;9.092;2022-07-18T01:50:04;16.77;;;1.83;;
15603;SDS011;7902;49.042;9.092;2022-07-18T01:52:30;14.00;;;1.57;;
15603;SDS011;7902;49.042;9.092;2022-07-18T01:54:56;13.97;;;1.73;;
15603;SDS011;7902;49.042;9.092;2022-07-18T01:57:22;13.40;;;1.57;;
15603;SDS011;7902;49.042;9.092;2022-07-18T01:59:49;16.53;;;1.70;;
15603;SDS011;7902;49.042;9.092;2022-07-18T02:02:15;18.20;;;1.50;;
15603;SDS011;7902;49.042;9.092;2022-07-18T02:04:41;19.97;;;1.73;;
15603;SDS011;7902;49.042;9.092;2022-07-18T02:07:30;13.63;;;1.80;;
15603;SDS011;7902;49.042;9.092;2022-07-18T02:09:58;13.30;;;1.50;;
15603;SDS011;7902;49.042;9.092;2022-07-18T02:12:25;16.77;;;1.50;;
15603;SDS011;7902;49.042;9.092;2022-07-18T02:14:51;35.07;;;1.97;;
15603;SDS011;7902;49.042;9.092;2022-07-18T02:17:17;18.97;;;1.37;;
15603;SDS011;7902;49.042;9.092;2022-07-18T02:19:44;13.27;;;1.43;;
15603;SDS011;7902;49.042;9.092;2022-07-18T02:22:11;13.10;;;1.53;;
15603;SDS011;7902;49.042;9.092;2022-07-18T02:24:37;13.13;;;1.20;;
15603;SDS011;7902;49.042;9.092;2022-07-18T02:27:03;12.30;;;1.40;;
15603;SDS011;7902;49.042;9.092;2022-07-18T02:29:30;19.10;;;1.40;;
15603;SDS011;7902;49.042;9.092;2022-07-18T02:31:56;14.83;;;1.60;;
15603;SDS011;7902;49.042;9.092;2022-07-18T02:34:22;14.47;;;1.90;;
15603;SDS011;7902;49.042;9.092;2022-07-18T02:36:48;14.13;;;1.80;;
15603;SDS011;7902;49.042;9.092;2022-07-18T02:39:16;21.90;;;1.70;;
15603;SDS011;7902;49.042;9.092;2022-07-18T02:41:43;17.60;;;1.70;;
15603;SDS011;7902;49.042;9.092;2022-07-18T02:44:09;13.27;;;1.40;;
15603;SDS011;7902;49.042;9.092;2022-07-18T02:46:35;20.13;;;1.50;;
15603;SDS011;7902;49.042;9.092;2022-07-18T02:49:02;16.63;;;1.53;;
15603;SDS011;7902;49.042;9.092;2022-07-18T02:51:28;20.17;;;1.50;;
15603;SDS011;7902;49.042;9.092;2022-07-18T02:53:54;14.20;;;1.13;;
15603;SDS011;7902;49.042;9.092;2022-07-18T02:56:20;14.50;;;2.03;;
15603;SDS011;7902;49.042;9.092;2022-07-18T02:58:46;16.57;;;1.97;;
15603;SDS011;7902;49.042;9.092;2022-07-18T03:01:12;12.50;;;1.30;;
15603;SDS011;7902;49.042;9.092;2022-07-18T03:03:38;14.27;;;1.67;;
15603;SDS011;7902;49.042;9.092;2022-07-18T03:06:04;12.80;;;1.47;;
15603;SDS011;7902;49.042;9.092;2022-07-18T03:08:30;12.73;;;1.40;;
15603;SDS011;7902;49.042;9.092;2022-07-18T03:10:56;14.90;;;1.77;;
15603;SDS011;7902;49.042;9.092;2022-07-18T03:13:22;18.90;;;1.93;;
15603;SDS011;7902;49.042;9.092;2022-07-18T03:15:48;13.87;;;1.60;;
15603;SDS011;7902;49.042;9.092;2022-07-18T03:18:14;19.30;;;1.67;;
15603;SDS011;7902;49.042;9.092;2022-07-18T03:20:40;13.83;;;1.67;;
15603;SDS011;7902;49.042;9.092;2022-07-18T03:23:07;13.90;;;1.57;;
15603;SDS011;7902;49.042;9.092;2022-07-18T03:25:33;14.47;;;1.53;;
15603;SDS011;7902;49.042;9.092;2022-07-18T03:27:59;12.90;;;1.70;;
15603;SDS011;7902;49.042;9.092;2022-07-18T03:30:25;13.23;;;1.63;;
15603;SDS011;7902;49.042;9.092;2022-07-18T03:32:51;15.80;;;1.50;;
15603;SDS011;7902;49.042;9.092;2022-07-18T03:35:17;15.67;;;1.73;;
15603;SDS011;7902;49.042;9.092;2022-07-18T03:37:43;13.57;;;1.57;;
15603;SDS011;7902;49.042;9.092;2022-07-18T03:40:09;16.03;;;2.43;;
15603;SDS011;7902;49.042;9.092;2022-07-18T03:42:36;20.07;;;1.87;;
15603;SDS011;7902;49.042;9.092;2022-07-18T03:45:04;18.00;;;1.80;;
15603;SDS011;7902;49.042;9.092;2022-07-18T03:47:31;16.50;;;2.37;;
15603;SDS011;7902;49.042;9.092;2022-07-18T03:49:57;12.90;;;1.50;;
15603;SDS011;7902;49.042;9.092;2022-07-18T03:52:23;18.27;;;2.10;;
15603;SDS011;7902;49.042;9.092;2022-07-18T03:54:49;13.10;;;1.67;;
15603;SDS011;7902;49.042;9.092;2022-07-18T03:57:15;13.50;;;1.60;;
15603;SDS011;7902;49.042;9.092;2022-07-18T03:59:41;14.37;;;2.57;;
15603;SDS011;7902;49.042;9.092;2022-07-18T04:02:07;18.43;;;1.70;;
15603;SDS011;7902;49.042;9.092;2022-07-18T04:04:33;14.27;;;1.63;;
15603;SDS011;7902;49.042;9.092;2022-07-18T04:06:59;19.67;;;2.00;;
15603;SDS011;7902;49.042;9.092;2022-07-18T04:09:26;16.83;;;1.60;;
15603;SDS011;7902;49.042;9.092;2022-07-18T04:11:52;19.80;;;1.70;;
15603;SDS011;7902;49.042;9.092;2022-07-18T04:14:18;16.50;;;1.70;;
15603;SDS011;7902;49.042;9.092;2022-07-18T04:16:44;14.13;;;2.17;;
15603;SDS011;7902;49.042;9.092;2022-07-18T04:19:10;16.83;;;1.77;;
15603;SDS011;7902;49.042;9.092;2022-07-18T04:21:36;13.20;;;1.80;;
15603;SDS011;7902;49.042;9.092;2022-07-18T04:24:02;15.70;;;2.20;;
15603;SDS011;7902;49.042;9.092;2022-07-18T04:26:28;17.40;;;1.53;;
15603;SDS011;7902;49.042;9.092;2022-07-18T04:28:54;18.87;;;1.93;;
15603;SDS011;7902;49.042;9.092;2022-07-18T04:31:20;19.20;;;1.80;;
15603;SDS011;7902;49.042;9.092;2022-07-18T04:33:46;13.80;;;1.37;;
15603;SDS011;7902;49.042;9.092;2022-07-18T04:36:12;13.00;;;1.20;;
15603;SDS011;7902;49.042;9.092;2022-07-18T04:38:37;14.63;;;1.90;;
15603;SDS011;7902;49.042;9.092;2022-07-18T04:41:04;16.90;;;1.60;;
15603;SDS011;7902;49.042;9.092;2022-07-18T04:43:30;17.37;;;1.80;;
15603;SDS011;7902;49.042;9.092;2022-07-18T04:45:56;13.77;;;2.07;;
15603;SDS011;7902;49.042;9.092;2022-07-18T04:48:22;17.23;;;2.00;;
15603;SDS011;7902;49.042;9.092;2022-07-18T04:50:48;13.43;;;1.73;;
15603;SDS011;7902;49.042;9.092;2022-07-18T04:53:14;24.90;;;2.60;;
15603;SDS011;7902;49.042;9.092;2022-07-18T04:55:40;28.60;;;2.07;;
15603;SDS011;7902;49.042;9.092;2022-07-18T04:58:06;30.90;;;2.43;;
15603;SDS011;7902;49.042;9.092;2022-07-18T05:00:32;21.70;;;2.63;;
15603;SDS011;7902;49.042;9.092;2022-07-18T05:02:58;27.73;;;2.43;;
15603;SDS011;7902;49.042;9.092;2022-07-18T05:05:24;17.30;;;2.20;;
15603;SDS011;7902;49.042;9.092;2022-07-18T05:07:52;18.10;;;1.93;;
15603;SDS011;7902;49.042;9.092;2022-07-18T05:10:19;28.03;;;2.30;;
15603;SDS011;7902;49.042;9.092;2022-07-18T05:12:53;28.77;;;2.80;;
15603;SDS011;7902;49.042;9.092;2022-07-18T05:15:20;21.60;;;2.97;;
15603;SDS011;7902;49.042;9.092;2022-07-18T05:17:47;20.43;;;2.80;;
15603;SDS011;7902;49.042;9.092;2022-07-18T05:20:14;18.83;;;3.40;;
15603;SDS011;7902;49.042;9.092;2022-07-18T05:22:42;17.90;;;3.30;;
15603;SDS011;7902;49.042;9.092;2022-07-18T05:25:09;19.00;;;3.30;;
15603;SDS011;7902;49.042;9.092;2022-07-18T05:27:36;23.50;;;2.60;;
15603;SDS011;7902;49.042;9.092;2022-07-18T05:30:03;19.70;;;2.57;;
15603;SDS011;7902;49.042;9.092;2022-07-18T05:32:30;16.77;;;2.73;;
15603;SDS011;7902;49.042;9.092;2022-07-18T05:34:56;17.10;;;2.90;;
15603;SDS011;7902;49.042;9.092;2022-07-18T05:37:22;17.30;;;2.50;;
15603;SDS011;7902;49.042;9.092;2022-07-18T05:39:48;25.73;;;2.27;;
15603;SDS011;7902;49.042;9.092;2022-07-18T05:42:17;19.63;;;2.23;;
15603;SDS011;7902;49.042;9.092;2022-07-18T05:44:43;27.03;;;2.30;;
15603;SDS011;7902;49.042;9.092;2022-07-18T05:47:09;16.53;;;2.33;;
15603;SDS011;7902;49.042;9.092;2022-07-18T05:49:36;13.87;;;1.67;;
15603;SDS011;7902;49.042;9.092;2022-07-18T05:52:02;20.60;;;2.40;;
15603;SDS011;7902;49.042;9.092;2022-07-18T05:54:28;15.47;;;2.70;;
15603;SDS011;7902;49.042;9.092;2022-07-18T05:56:54;25.10;;;2.60;;
15603;SDS011;7902;49.042;9.092;2022-07-18T05:59:20;16.43;;;2.53;;
15603;SDS011;7902;49.042;9.092;2022-07-18T06:01:47;18.30;;;1.90;;
15603;SDS011;7902;49.042;9.092;2022-07-18T06:04:14;17.30;;;1.80;;
15603;SDS011;7902;49.042;9.092;2022-07-18T06:06:40;25.10;;;3.43;;
15603;SDS011;7902;49.042;9.092;2022-07-18T06:09:06;15.33;;;1.83;;
15603;SDS011;7902;49.042;9.092;2022-07-18T06:11:34;18.00;;;2.27;;
15603;SDS011;7902;49.042;9.092;2022-07-18T06:14:00;22.20;;;2.10;;
15603;SDS011;7902;49.042;9.092;2022-07-18T06:16:28;17.87;;;2.37;;
15603;SDS011;7902;49.042;9.092;2022-07-18T06:18:55;16.60;;;2.50;;
15603;SDS011;7902;49.042;9.092;2022-07-18T06:21:22;19.70;;;2.50;;
15603;SDS011;7902;49.042;9.092;2022-07-18T06:23:48;20.40;;;2.03;;
15603;SDS011;7902;49.042;9.092;2022-07-18T06:26:14;18.53;;;2.37;;
15603;SDS011;7902;49.042;9.092;2022-07-18T06:28:40;18.40;;;1.73;;
15603;SDS011;7902;49.042;9.092;2022-07-18T06:31:06;16.90;;;2.17;;
15603;SDS011;7902;49.042;9.092;2022-07-18T06:33:32;14.93;;;1.80;;
15603;SDS011;7902;49.042;9.092;2022-07-18T06:35:58;15.07;;;2.00;;
15603;SDS011;7902;49.042;9.092;2022-07-18T06:38:24;15.57;;;1.50;;
15603;SDS011;7902;49.042;9.092;2022-07-18T06:40:49;19.83;;;1.90;;
15603;SDS011;7902;49.042;9.092;2022-07-18T06:43:15;17.37;;;2.13;;
15603;SDS011;7902;49.042;9.092;2022-07-18T06:45:45;19.40;;;1.90;;
15603;SDS011;7902;49.042;9.092;2022-07-18T06:48:13;15.60;;;1.90;;
15603;SDS011;7902;49.042;9.092;2022-07-18T06:50:40;20.27;;;2.00;;
15603;SDS011;7902;49.042;9.092;2022-07-18T06:53:05;15.40;;;1.80;;
15603;SDS011;7902;49.042;9.092;2022-07-18T06:55:31;16.27;;;1.90;;
15603;SDS011;7902;49.042;9.092;2022-07-18T06:57:57;16.60;;;1.83;;
15603;SDS011;7902;49.042;9.092;2022-07-18T07:00:23;14.13;;;1.53;;
15603;SDS011;7902;49.042;9.092;2022-07-18T07:02:49;16.00;;;1.57;;
15603;SDS011;7902;49.042;9.092;2022-07-18T07:05:16;16.60;;;1.70;;
15603;SDS011;7902;49.042;9.092;2022-07-18T07:07:43;14.80;;;1.87;;
15603;SDS011;7902;49.042;9.092;2022-07-18T07:10:10;20.70;;;1.50;;
15603;SDS011;7902;49.042;9.092;2022-07-18T07:12:38;18.10;;;1.40;;
15603;SDS011;7902;49.042;9.092;2022-07-18T07:15:08;14.40;;;1.73;;
15603;SDS011;7902;49.042;9.092;2022-07-18T07:17:35;17.20;;;1.70;;
15603;SDS011;7902;49.042;9.092;2022-07-18T07:20:03;16.17;;;1.87;;
15603;SDS011;7902;49.042;9.092;2022-07-18T07:22:31;26.50;;;1.73;;
15603;SDS011;7902;49.042;9.092;2022-07-18T07:25:05;28.87;;;2.30;;
15603;SDS011;7902;49.042;9.092;2022-07-18T07:27:31;17.17;;;1.63;;
15603;SDS011;7902;49.042;9.092;2022-07-18T07:29:57;14.17;;;1.50;;
15603;SDS011;7902;49.042;9.092;2022-07-18T07:32:23;19.77;;;1.80;;
15603;SDS011;7902;49.042;9.092;2022-07-18T07:34:49;14.63;;;1.90;;
15603;SDS011;7902;49.042;9.092;2022-07-18T07:37:15;21.50;;;1.50;;
15603;SDS011;7902;49.042;9.092;2022-07-18T07:39:41;16.40;;;1.70;;
15603;SDS011;7902;49.042;9.092;2022-07-18T07:42:07;14.17;;;1.53;;
15603;SDS011;7902;49.042;9.092;2022-07-18T07:44:33;15.47;;;1.90;;
15603;SDS011;7902;49.042;9.092;2022-07-18T07:46:59;15.77;;;1.80;;
15603;SDS011;7902;49.042;9.092;2022-07-18T07:49:25;24.30;;;1.73;;
15603;SDS011;7902;49.042;9.092;2022-07-18T07:51:51;17.43;;;2.13;;
15603;SDS011;7902;49.042;9.092;2022-07-18T07:54:17;24.93;;;1.83;;
15603;SDS011;7902;49.042;9.092;2022-07-18T07:56:42;15.70;;;2.00;;
15603;SDS011;7902;49.042;9.092;2022-07-18T07:59:08;33.13;;;2.07;;
15603;SDS011;7902;49.042;9.092;2022-07-18T08:01:34;15.10;;;1.93;;
15603;SDS011;7902;49.042;9.092;2022-07-18T08:04:00;16.93;;;1.67;;
15603;SDS011;7902;49.042;9.092;2022-07-18T08:06:26;13.67;;;1.50;;
15603;SDS011;7902;49.042;9.092;2022-07-18T08:08:52;21.87;;;1.63;;
15603;SDS011;7902;49.042;9.092;2022-07-18T08:11:18;15.43;;;1.90;;
15603;SDS011;7902;49.042;9.092;2022-07-18T08:13:44;25.60;;;2.07;;
15603;SDS011;7902;49.042;9.092;2022-07-18T08:16:10;14.50;;;1.40;;
15603;SDS011;7902;49.042;9.092;2022-07-18T08:18:35;14.90;;;1.57;;
15603;SDS011;7902;49.042;9.092;2022-07-18T08:21:02;16.47;;;2.00;;
15603;SDS011;7902;49.042;9.092;2022-07-18T08:23:28;13.40;;;1.30;;
15603;SDS011;7902;49.042;9.092;2022-07-18T08:25:54;20.17;;;1.90;;
15603;SDS011;7902;49.042;9.092;2022-07-18T08:28:19;18.13;;;1.90;;
15603;SDS011;7902;49.042;9.092;2022-07-18T08:30:45;20.50;;;1.67;;
15603;SDS011;7902;49.042;9.092;2022-07-18T08:33:11;29.10;;;1.70;;
15603;SDS011;7902;49.042;9.092;2022-07-18T08:35:37;23.50;;;1.93;;
15603;SDS011;7902;49.042;9.092;2022-07-18T08:38:03;17.93;;;1.90;;
15603;SDS011;7902;49.042;9.092;2022-07-18T08:40:30;24.40;;;2.20;;
15603;SDS011;7902;49.042;9.092;2022-07-18T08:42:57;23.37;;;1.93;;
15603;SDS011;7902;49.042;9.092;2022-07-18T08:45:24;21.43;;;2.13;;
15603;SDS011;7902;49.042;9.092;2022-07-18T08:47:51;19.20;;;1.93;;
15603;SDS011;7902;49.042;9.092;2022-07-18T08:50:18;20.93;;;1.70;;
15603;SDS011;7902;49.042;9.092;2022-07-18T08:52:45;16.90;;;1.67;;
15603;SDS011;7902;49.042;9.092;2022-07-18T08:55:12;21.77;;;1.80;;
15603;SDS011;7902;49.042;9.092;2022-07-18T08:57:38;23.80;;;2.20;;
15603;SDS011;7902;49.042;9.092;2022-07-18T09:00:04;27.17;;;2.10;;
15603;SDS011;7902;49.042;9.092;2022-07-18T09:02:34;18.93;;;1.77;;
15603;SDS011;7902;49.042;9.092;2022-07-18T09:05:02;19.00;;;1.42;;
15603;SDS011;7902;49.042;9.092;2022-07-18T09:07:30;20.70;;;2.27;;
15603;SDS011;7902;49.042;9.092;2022-07-18T09:09:59;16.92;;;1.60;;
15603;SDS011;7902;49.042;9.092;2022-07-18T09:12:27;16.88;;;2.40;;
15603;SDS011;7902;49.042;9.092;2022-07-18T09:14:56;26.17;;;1.90;;
15603;SDS011;7902;49.042;9.092;2022-07-18T09:17:26;22.17;;;2.45;;
15603;SDS011;7902;49.042;9.092;2022-07-18T09:20:01;16.65;;;1.95;;
15603;SDS011;7902;49.042;9.092;2022-07-18T09:22:29;15.60;;;1.67;;
15603;SDS011;7902;49.042;9.092;2022-07-18T09:27:26;17.23;;;1.70;;
15603;SDS011;7902;49.042;9.092;2022-07-18T09:32:36;16.70;;;1.50;;
15603;SDS011;7902;49.042;9.092;2022-07-18T09:35:05;18.05;;;1.90;;
15603;SDS011;7902;49.042;9.092;2022-07-18T09:37:32;17.75;;;1.50;;
15603;SDS011;7902;49.042;9.092;2022-07-18T09:40:17;14.93;;;1.77;;
15603;SDS011;7902;49.042;9.092;2022-07-18T09:42:49;20.50;;;1.75;;
15603;SDS011;7902;49.042;9.092;2022-07-18T09:45:21;14.30;;;1.40;;
15603;SDS011;7902;49.042;9.092;2022-07-18T09:47:52;14.75;;;1.60;;
15603;SDS011;7902;49.042;9.092;2022-07-18T09:50:24;14.95;;;1.80;;
15603;SDS011;7902;49.042;9.092;2022-07-18T09:52:56;14.98;;;1.60;;
15603;SDS011;7902;49.042;9.092;2022-07-18T09:55:26;19.42;;;1.70;;
15603;SDS011;7902;49.042;9.092;2022-07-18T10:00:27;17.38;;;1.60;;
15603;SDS011;7902;49.042;9.092;2022-07-18T10:02:56;14.27;;;1.60;;
15603;SDS011;7902;49.042;9.092;2022-07-18T10:05:25;15.68;;;1.65;;
15603;SDS011;7902;49.042;9.092;2022-07-18T10:07:53;15.43;;;1.60;;
15603;SDS011;7902;49.042;9.092;2022-07-18T10:10:19;15.35;;;1.73;;
15603;SDS011;7902;49.042;9.092;2022-07-18T10:12:45;13.70;;;1.05;;
15603;SDS011;7902;49.042;9.092;2022-07-18T10:15:11;13.90;;;1.25;;
15603;SDS011;7902;49.042;9.092;2022-07-18T10:17:37;14.88;;;1.80;;
15603;SDS011;7902;49.042;9.092;2022-07-18T10:20:04;23.13;;;1.60;;
15603;SDS011;7902;49.042;9.092;2022-07-18T10:22:35;20.55;;;1.85;;
15603;SDS011;7902;49.042;9.092;2022-07-18T10:25:04;16.95;;;1.60;;
15603;SDS011;7902;49.042;9.092;2022-07-18T10:27:47;15.27;;;1.20;;
15603;SDS011;7902;49.042;9.092;2022-07-18T10:30:14;18.20;;;1.55;;
15603;SDS011;7902;49.042;9.092;2022-07-18T10:32:40;16.42;;;1.52;;
15603;SDS011;7902;49.042;9.092;2022-07-18T10:35:07;19.77;;;1.83;;
15603;SDS011;7902;49.042;9.092;2022-07-18T10:37:36;13.45;;;1.55;;
15603;SDS011;7902;49.042;9.092;2022-07-18T10:40:21;15.38;;;1.58;;
15603;SDS011;7902;49.042;9.092;2022-07-18T10:45:57;17.33;;;1.40;;
15603;SDS011;7902;49.042;9.092;2022-07-18T10:49:10;23.45;;;1.85;;
15603;SDS011;7902;49.042;9.092;2022-07-18T10:51:15;14.38;;;1.50;;
15603;SDS011;7902;49.042;9.092;2022-07-18T10:58:54;14.85;;;1.50;;
15603;SDS011;7902;49.042;9.092;2022-07-18T11:01:21;17.20;;;1.75;;
15603;SDS011;7902;49.042;9.092;2022-07-18T11:03:50;14.80;;;1.63;;
15603;SDS011;7902;49.042;9.092;2022-07-18T11:07:12;13.82;;;1.45;;
15603;SDS011;7902;49.042;9.092;2022-07-18T11:09:46;13.77;;;1.80;;
15603;SDS011;7902;49.042;9.092;2022-07-18T11:15:06;18.73;;;1.95;;
15603;SDS011;7902;49.042;9.092;2022-07-18T11:22:50;17.67;;;1.45;;
15603;SDS011;7902;49.042;9.092;2022-07-18T11:25:17;16.05;;;1.35;;
15603;SDS011;7902;49.042;9.092;2022-07-18T11:27:44;14.45;;;1.50;;
15603;SDS011;7902;49.042;9.092;2022-07-18T11:30:15;17.58;;;1.40;;
15603;SDS011;7902;49.042;9.092;2022-07-18T11:32:42;14.23;;;1.10;;
15603;SDS011;7902;49.042;9.092;2022-07-18T11:35:08;13.48;;;1.40;;
15603;SDS011;7902;49.042;9.092;2022-07-18T11:37:35;16.42;;;1.30;;
15603;SDS011;7902;49.042;9.092;2022-07-18T11:40:07;13.20;;;1.15;;
15603;SDS011;7902;49.042;9.092;2022-07-18T11:42:35;13.27;;;1.00;;
15603;SDS011;7902;49.042;9.092;2022-07-18T11:45:03;13.27;;;1.13;;
15603;SDS011;7902;49.042;9.092;2022-07-18T11:47:44;14.23;;;1.27;;
15603;SDS011;7902;49.042;9.092;2022-07-18T11:50:13;14.50;;;1.30;;
15603;SDS011;7902;49.042;9.092;2022-07-18T11:52:39;15.70;;;1.50;;
15603;SDS011;7902;49.042;9.092;2022-07-18T11:55:06;13.13;;;1.20;;
15603;SDS011;7902;49.042;9.092;2022-07-18T11:57:32;12.88;;;1.02;;
15603;SDS011;7902;49.042;9.092;2022-07-18T12:00:00;21.13;;;1.88;;
15603;SDS011;7902;49.042;9.092;2022-07-18T12:05:38;13.90;;;1.13;;
15603;SDS011;7902;49.042;9.092;2022-07-18T12:18:51;15.43;;;1.95;;
15603;SDS011;7902;49.042;9.092;2022-07-18T12:21:19;16.42;;;2.10;;
15603;SDS011;7902;49.042;9.092;2022-07-18T12:23:45;14.48;;;1.27;;
15603;SDS011;7902;49.042;9.092;2022-07-18T12:26:30;14.27;;;1.10;;
15603;SDS011;7902;49.042;9.092;2022-07-18T12:29:07;15.27;;;1.40;;
15603;SDS011;7902;49.042;9.092;2022-07-18T12:31:37;14.60;;;1.40;;
15603;SDS011;7902;49.042;9.092;2022-07-18T12:34:06;12.68;;;1.27;;
15603;SDS011;7902;49.042;9.092;2022-07-18T12:36:55;20.70;;;1.48;;
15603;SDS011;7902;49.042;9.092;2022-07-18T12:39:29;13.50;;;1.50;;
15603;SDS011;7902;49.042;9.092;2022-07-18T12:41:56;13.25;;;1.52;;
15603;SDS011;7902;49.042;9.092;2022-07-18T12:44:26;19.10;;;1.58;;
15603;SDS011;7902;49.042;9.092;2022-07-18T12:46:54;13.73;;;1.10;;
15603;SDS011;7902;49.042;9.092;2022-07-18T12:49:20;16.92;;;1.30;;
15603;SDS011;7902;49.042;9.092;2022-07-18T12:51:47;13.70;;;1.30;;
15603;SDS011;7902;49.042;9.092;2022-07-18T12:54:16;18.70;;;1.60;;
15603;SDS011;7902;49.042;9.092;2022-07-18T12:56:42;17.95;;;1.20;;
15603;SDS011;7902;49.042;9.092;2022-07-18T12:59:08;13.18;;;1.30;;
15603;SDS011;7902;49.042;9.092;2022-07-18T13:01:34;13.77;;;1.25;;
15603;SDS011;7902;49.042;9.092;2022-07-18T13:04:00;16.40;;;1.95;;
15603;SDS011;7902;49.042;9.092;2022-07-18T13:06:26;14.15;;;1.30;;
15603;SDS011;7902;49.042;9.092;2022-07-18T13:08:52;20.63;;;1.50;;
15603;SDS011;7902;49.042;9.092;2022-07-18T13:11:18;22.52;;;1.55;;
15603;SDS011;7902;49.042;9.092;2022-07-18T13:13:43;13.45;;;1.45;;
15603;SDS011;7902;49.042;9.092;2022-07-18T13:16:09;12.90;;;1.13;;
15603;SDS011;7902;49.042;9.092;2022-07-18T13:18:35;23.35;;;1.35;;
15603;SDS011;7902;49.042;9.092;2022-07-18T13:21:01;21.08;;;1.75;;
15603;SDS011;7902;49.042;9.092;2022-07-18T13:23:27;13.65;;;1.45;;
15603;SDS011;7902;49.042;9.092;2022-07-18T13:25:53;13.48;;;1.20;;
15603;SDS011;7902;49.042;9.092;2022-07-18T13:28:19;15.32;;;1.40;;
15603;SDS011;7902;49.042;9.092;2022-07-18T13:30:45;11.90;;;1.20;;
15603;SDS011;7902;49.042;9.092;2022-07-18T13:33:11;21.65;;;1.50;;
15603;SDS011;7902;49.042;9.092;2022-07-18T13:35:37;14.20;;;1.35;;
15603;SDS011;7902;49.042;9.092;2022-07-18T13:38:02;12.50;;;1.00;;
15603;SDS011;7902;49.042;9.092;2022-07-18T13:40:28;13.20;;;1.50;;
15603;SDS011;7902;49.042;9.092;2022-07-18T13:42:55;13.13;;;1.30;;
15603;SDS011;7902;49.042;9.092;2022-07-18T13:45:21;11.88;;;1.40;;
15603;SDS011;7902;49.042;9.092;2022-07-18T13:47:47;14.38;;;1.33;;
15603;SDS011;7902;49.042;9.092;2022-07-18T13:50:13;14.82;;;1.30;;
15603;SDS011;7902;49.042;9.092;2022-07-18T13:52:39;11.60;;;1.30;;
15603;SDS011;7902;49.042;9.092;2022-07-18T13:55:05;17.73;;;1.55;;
15603;SDS011;7902;49.042;9.092;2022-07-18T13:57:31;11.77;;;1.25;;
15603;SDS011;7902;49.042;9.092;2022-07-18T13:59:57;13.38;;;1.45;;
15603;SDS011;7902;49.042;9.092;2022-07-18T14:02:23;15.32;;;1.30;;
15603;SDS011;7902;49.042;9.092;2022-07-18T14:04:49;12.95;;;1.50;;
15603;SDS011;7902;49.042;9.092;2022-07-18T14:07:15;12.63;;;1.27;;
15603;SDS011;7902;49.042;9.092;2022-07-18T14:09:43;13.88;;;1.50;;
15603;SDS011;7902;49.042;9.092;2022-07-18T14:12:09;11.20;;;1.15;;
15603;SDS011;7902;49.042;9.092;2022-07-18T14:14:35;28.33;;;1.45;;
15603;SDS011;7902;49.042;9.092;2022-07-18T14:17:01;10.88;;;1.10;;
15603;SDS011;7902;49.042;9.092;2022-07-18T14:19:27;10.70;;;1.00;;
15603;SDS011;7902;49.042;9.092;2022-07-18T14:21:53;12.27;;;1.08;;
15603;SDS011;7902;49.042;9.092;2022-07-18T14:24:19;12.35;;;1.67;;
15603;SDS011;7902;49.042;9.092;2022-07-18T14:26:45;14.30;;;1.40;;
15603;SDS011;7902;49.042;9.092;2022-07-18T14:29:11;15.50;;;1.42;;
15603;SDS011;7902;49.042;9.092;2022-07-18T14:31:37;13.15;;;1.70;;
15603;SDS011;7902;49.042;9.092;2022-07-18T14:34:03;11.20;;;1.20;;
15603;SDS011;7902;49.042;9.092;2022-07-18T14:36:29;19.02;;;1.90;;
15603;SDS011;7902;49.042;9.092;2022-07-18T14:38:56;21.67;;;1.50;;
15603;SDS011;7902;49.042;9.092;2022-07-18T14:41:22;11.43;;;1.30;;
15603;SDS011;7902;49.042;9.092;2022-07-18T14:43:48;12.32;;;1.27;;
15603;SDS011;7902;49.042;9.092;2022-07-18T14:46:14;11.60;;;1.00;;
15603;SDS011;7902;49.042;9.092;2022-07-18T14:48:40;33.65;;;1.80;;
15603;SDS011;7902;49.042;9.092;2022-07-18T14:51:06;12.82;;;1.40;;
15603;SDS011;7902;49.042;9.092;2022-07-18T14:53:32;11.75;;;1.27;;
15603;SDS011;7902;49.042;9.092;2022-07-18T14:55:58;12.50;;;1.30;;
15603;SDS011;7902;49.042;9.092;2022-07-18T14:58:23;10.85;;;1.25;;
15603;SDS011;7902;49.042;9.092;2022-07-18T15:00:49;13.35;;;1.10;;
15603;SDS011;7902;49.042;9.092;2022-07-18T15:03:16;12.57;;;1.25;;
15603;SDS011;7902;49.042;9.092;2022-07-18T15:05:42;11.43;;;1.40;;
15603;SDS011;7902;49.042;9.092;2022-07-18T15:08:08;18.75;;;1.70;;
15603;SDS011;7902;49.042;9.092;2022-07-18T15:10:33;13.15;;;1.55;;
15603;SDS011;7902;49.042;9.092;2022-07-18T15:12:59;16.90;;;1.67;;
15603;SDS011;7902;49.042;9.092;2022-07-18T15:15:26;11.52;;;1.35;;
15603;SDS011;7902;49.042;9.092;2022-07-18T15:17:52;17.35;;;1.50;;
15603;SDS011;7902;49.042;9.092;2022-07-18T15:20:18;15.05;;;1.35;;
15603;SDS011;7902;49.042;9.092;2022-07-18T15:22:44;11.30;;;1.27;;
15603;SDS011;7902;49.042;9.092;2022-07-18T15:25:10;14.18;;;1.40;;
15603;SDS011;7902;49.042;9.092;2022-07-18T15:27:36;17.05;;;1.23;;